createdAt,value
2019-05-06T00:03:14.450Z,75.63
2019-05-06T00:08:17.870Z,75.70
2019-05-06T00:13:21.266Z,76.26
2019-05-06T00:18:24.683Z,75.85
2019-05-06T00:23:32.452Z,76.48
2019-05-06T00:28:37.501Z,76.95
2019-05-06T00:33:40.921Z,76.91
2019-05-06T00:38:46.045Z,77.40
2019-05-06T00:43:49.453Z,76.71
2019-05-06T00:48:54.260Z,77.44
2019-05-06T00:53:59.512Z,76.85
2019-05-06T00:59:03.986Z,77.24
2019-05-06T01:04:07.485Z,76.81
2019-05-06T01:09:14.080Z,77.28
2019-05-06T01:14:35.349Z,76.65
2019-05-06T01:19:38.880Z,76.74
2019-05-06T01:24:43.933Z,77.24
2019-05-06T01:29:47.492Z,77.53
2019-05-06T01:34:50.911Z,77.80
2019-05-06T01:40:05.376Z,77.87
2019-05-06T01:45:10.059Z,79.17
2019-05-06T01:50:14.114Z,79.00
2019-05-06T01:55:17.690Z,79.20
2019-05-06T02:00:23.727Z,79.24
2019-05-06T02:05:27.331Z,80.43
2019-05-06T02:10:30.774Z,80.50
2019-05-06T02:15:34.635Z,80.31
2019-05-06T02:20:39.751Z,81.10
2019-05-06T02:25:44.814Z,81.31
2019-05-06T02:30:54.829Z,80.75
2019-05-06T02:35:59.499Z,82.40
2019-05-06T02:41:03.675Z,82.45
2019-05-06T02:46:07.267Z,81.56
2019-05-06T02:51:13.333Z,82.14
2019-05-06T02:56:17.028Z,81.90
2019-05-06T03:01:23.353Z,82.91
2019-05-06T03:06:26.320Z,81.98
2019-05-06T03:11:29.748Z,82.16
2019-05-06T03:16:33.596Z,81.31
2019-05-06T03:21:45.012Z,80.38
2019-05-06T03:26:53.398Z,81.12
2019-05-06T03:31:56.959Z,80.82
2019-05-06T03:37:00.535Z,81.11
2019-05-06T03:42:04.789Z,80.58
2019-05-06T03:47:10.020Z,79.83
2019-05-06T03:52:13.723Z,81.16
2019-05-06T03:57:18.673Z,80.46
2019-05-06T04:02:24.026Z,81.42
2019-05-06T04:07:28.056Z,81.20
2019-05-06T04:12:34.621Z,81.99
2019-05-06T04:17:48.829Z,81.75
2019-05-06T04:23:06.433Z,83.44
2019-05-06T04:28:17.891Z,82.53
2019-05-06T04:33:23.673Z,83.03
2019-05-06T04:38:27.078Z,83.69
2019-05-06T04:43:33.659Z,82.36
2019-05-06T04:48:36.022Z,82.29
2019-05-06T04:53:39.434Z,82.88
2019-05-06T04:58:43.924Z,82.68
2019-05-06T05:03:47.554Z,82.76
2019-05-06T05:08:53.202Z,82.02
2019-05-06T05:14:02.834Z,81.25
2019-05-06T05:19:12.106Z,81.14
2019-05-06T05:24:15.463Z,80.70
2019-05-06T05:29:18.927Z,80.56
2019-05-06T05:34:26.648Z,80.93
2019-05-06T05:39:27.670Z,81.25
2019-05-06T05:44:32.744Z,80.70
2019-05-06T05:49:37.829Z,80.83
2019-05-06T05:54:42.354Z,79.54
2019-05-06T05:59:45.989Z,80.07
2019-05-06T06:04:54.803Z,79.59
2019-05-06T06:10:02.705Z,79.25
2019-05-06T06:15:08.969Z,79.86
2019-05-06T06:20:32.754Z,79.29
2019-05-06T06:25:36.787Z,78.10
2019-05-06T06:30:47.743Z,77.99
2019-05-06T06:35:55.401Z,78.09
2019-05-06T06:40:58.874Z,77.75
2019-05-06T06:46:02.555Z,76.57
2019-05-06T06:51:06.077Z,76.21
2019-05-06T06:56:21.880Z,75.75
2019-05-06T07:01:29.399Z,75.96
2019-05-06T07:06:34.523Z,75.04
2019-05-06T07:11:38.093Z,73.66
2019-05-06T07:16:43.049Z,72.94
2019-05-06T07:21:52.258Z,72.29
2019-05-06T07:26:59.886Z,71.45
2019-05-06T07:32:03.314Z,70.54
2019-05-06T07:37:06.728Z,70.19
2019-05-06T07:42:17.822Z,68.25
2019-05-06T07:47:23.952Z,69.58
2019-05-06T07:52:27.572Z,68.54
2019-05-06T07:57:32.981Z,68.44
2019-05-06T08:02:36.193Z,65.95
2019-05-06T08:07:39.613Z,66.78
2019-05-06T08:12:43.049Z,65.45
2019-05-06T08:17:46.475Z,63.79
2019-05-06T08:23:03.556Z,64.01
2019-05-06T08:28:07.011Z,63.09
2019-05-06T08:33:12.718Z,61.44
2019-05-06T08:38:15.656Z,62.35
2019-05-06T08:43:19.089Z,61.43
2019-05-06T08:48:22.515Z,61.60
2019-05-06T08:53:27.579Z,58.70
2019-05-06T08:58:47.442Z,60.26
2019-05-06T09:04:06.421Z,56.08
2019-05-06T09:08:56.975Z,57.71
2019-05-06T09:14:03.199Z,56.24
2019-05-06T09:19:05.927Z,52.26
2019-05-06T09:24:09.409Z,53.37
2019-05-06T09:29:17.311Z,48.37
2019-05-06T09:34:34.392Z,48.02
2019-05-06T09:39:37.944Z,45.44
2019-05-06T09:44:42.880Z,46.64
2019-05-06T09:49:47.973Z,47.81
2019-05-06T09:54:58.727Z,46.77
2019-05-06T10:00:04.573Z,45.16
2019-05-06T10:05:07.443Z,41.93
2019-05-06T10:10:10.991Z,43.07
2019-05-06T10:15:16.163Z,40.43
2019-05-06T10:20:22.201Z,41.84
2019-05-06T10:25:24.952Z,42.08
2019-05-06T10:30:28.385Z,42.08
2019-05-06T10:35:32.380Z,42.44
2019-05-06T10:40:56.238Z,42.93
2019-05-06T10:45:44.112Z,41.42
2019-05-06T10:50:49.478Z,40.02
2019-05-06T10:55:54.800Z,40.32
2019-05-06T11:00:59.872Z,39.22
2019-05-06T11:06:03.299Z,36.97
2019-05-06T11:11:15.346Z,40.24
2019-05-06T11:16:12.975Z,37.66
2019-05-06T11:21:16.522Z,38.29
2019-05-06T11:26:19.944Z,40.41
2019-05-06T11:36:57.653Z,39.03
2019-05-06T11:42:22.821Z,37.99
2019-05-06T11:47:06.251Z,37.65
2019-05-06T11:52:09.683Z,35.99
2019-05-06T11:57:13.108Z,36.89
2019-05-06T12:02:20.904Z,38.37
2019-05-06T12:07:24.877Z,37.86
2019-05-06T12:12:28.482Z,36.49
2019-05-06T12:17:31.899Z,36.82
2019-05-06T12:22:38.242Z,37.91
2019-05-06T12:27:44.175Z,38.43
2019-05-06T12:38:26.715Z,38.83
2019-05-06T12:43:24.386Z,40.04
2019-05-06T12:48:29.502Z,40.14
2019-05-06T12:53:32.938Z,40.17
2019-05-06T12:58:36.361Z,41.15
2019-05-06T13:03:39.880Z,39.53
2019-05-06T13:08:56.642Z,39.58
2019-05-06T13:13:57.404Z,41.11
2019-05-06T13:18:54.962Z,39.04
2019-05-06T13:24:04.622Z,41.35
2019-05-06T13:29:10.027Z,41.73
2019-05-06T13:34:17.665Z,43.88
2019-05-06T13:39:23.773Z,43.79
2019-05-06T13:44:26.330Z,43.55
2019-05-06T13:49:31.468Z,44.28
2019-05-06T13:54:34.991Z,43.13
2019-05-06T13:59:38.447Z,40.48
2019-05-06T14:04:44.226Z,40.58
2019-05-06T14:09:47.116Z,41.74
2019-05-06T14:14:52.738Z,43.44
2019-05-06T14:19:55.703Z,43.88
2019-05-06T14:25:00.788Z,44.12
2019-05-06T14:30:16.710Z,44.89
2019-05-06T14:35:20.232Z,46.29
2019-05-06T14:40:25.340Z,46.27
2019-05-06T14:45:28.797Z,47.39
2019-05-06T14:50:44.424Z,48.20
2019-05-06T14:55:38.920Z,48.85
2019-05-06T15:00:42.687Z,47.29
2019-05-06T15:05:46.112Z,46.54
2019-05-06T15:10:49.699Z,46.77
2019-05-06T15:15:53.281Z,46.54
2019-05-06T15:20:56.727Z,49.38
2019-05-06T15:26:00.183Z,50.85
2019-05-06T15:31:05.248Z,51.47
2019-05-06T15:36:12.709Z,49.52
2019-05-06T15:41:15.500Z,50.10
2019-05-06T15:46:18.938Z,57.02
2019-05-06T15:51:24.007Z,59.92
2019-05-06T15:56:27.434Z,61.77
2019-05-06T16:01:33.211Z,64.64
2019-05-06T16:06:36.048Z,66.36
2019-05-06T16:11:39.474Z,68.11
2019-05-06T16:16:43.102Z,69.45
2019-05-06T16:21:46.530Z,70.59
2019-05-06T16:26:52.216Z,67.92
2019-05-06T16:31:55.198Z,66.31
2019-05-06T16:36:58.652Z,65.03
2019-05-06T16:42:03.616Z,65.05
2019-05-06T16:47:07.297Z,60.57
2019-05-06T16:52:12.903Z,59.26
2019-05-06T16:57:20.237Z,60.78
2019-05-06T17:02:26.659Z,59.84
2019-05-06T17:07:30.158Z,61.66
2019-05-06T17:34:36.336Z,62.29
2019-05-06T17:44:29.656Z,62.01
2019-05-06T17:49:37.370Z,59.25
2019-05-06T17:54:42.899Z,59.35
2019-05-06T17:59:46.274Z,60.12
2019-05-06T18:04:49.863Z,60.32
2019-05-06T18:09:53.332Z,60.75
2019-05-06T18:14:58.292Z,65.59
2019-05-06T18:20:02.956Z,65.73
2019-05-06T18:25:06.889Z,63.84
2019-05-06T18:30:22.401Z,65.08
2019-05-06T18:35:16.361Z,67.79
2019-05-06T18:40:19.935Z,69.21
2019-05-06T18:45:23.449Z,70.00
2019-05-06T18:50:26.904Z,72.06
2019-05-06T18:55:32.546Z,72.77
2019-05-06T19:00:35.791Z,72.90
2019-05-06T19:05:42.940Z,75.46
2019-05-06T19:10:46.499Z,73.71
2019-05-06T19:15:50.016Z,76.61
2019-05-06T19:20:53.889Z,76.51
2019-05-06T19:25:57.307Z,76.60
2019-05-06T19:31:03.834Z,77.20
2019-05-06T19:36:07.323Z,79.11
2019-05-06T19:41:12.688Z,81.94
2019-05-06T19:46:15.916Z,79.55
2019-05-06T19:51:19.398Z,79.30
2019-05-06T19:56:23.310Z,80.97
2019-05-06T20:01:26.864Z,79.31
2019-05-06T20:06:40.641Z,79.46
2019-05-06T20:11:45.013Z,81.80
2019-05-06T20:16:48.529Z,81.58
2019-05-06T20:21:52.678Z,79.80
2019-05-06T20:26:56.287Z,78.92
2019-05-06T20:31:59.710Z,80.03
2019-05-06T20:37:03.232Z,81.07
2019-05-06T20:42:08.574Z,80.65
2019-05-06T20:47:15.142Z,82.65
2019-05-06T20:52:22.999Z,86.01
2019-05-06T20:57:28.294Z,83.98
2019-05-06T21:02:32.662Z,86.47
2019-05-06T21:07:38.953Z,85.32
2019-05-06T21:12:53.241Z,86.87
2019-05-06T21:18:15.540Z,85.16
2019-05-06T21:23:18.961Z,86.93
2019-05-06T21:28:23.735Z,85.89
2019-05-06T21:33:27.413Z,84.73
2019-05-06T21:38:30.840Z,82.98
2019-05-06T21:43:46.029Z,83.01
2019-05-06T21:48:39.432Z,82.88
2019-05-06T21:53:42.857Z,82.46
2019-05-06T21:58:46.277Z,84.67
2019-05-06T22:03:49.701Z,84.19
2019-05-06T22:08:53.197Z,84.22
2019-05-06T22:14:00.756Z,84.52
2019-05-06T22:19:02.547Z,85.62
2019-05-06T22:24:06.163Z,86.76
2019-05-06T22:29:09.589Z,87.00
2019-05-06T22:34:15.842Z,86.93
2019-05-06T22:39:18.612Z,89.04
2019-05-06T22:44:22.807Z,87.64
2019-05-06T22:49:26.255Z,87.44
2019-05-06T22:54:31.893Z,87.85
2019-05-06T22:59:34.858Z,87.54
2019-05-06T23:04:39.992Z,89.50
2019-05-06T23:09:43.484Z,89.19
2019-05-06T23:14:46.897Z,89.84
2019-05-06T23:19:52.704Z,88.62
2019-05-06T23:24:55.485Z,89.31
2019-05-06T23:29:58.903Z,90.20
2019-05-06T23:35:03.283Z,89.50
2019-05-06T23:40:43.389Z,89.76
2019-05-06T23:46:05.403Z,89.87
2019-05-06T23:51:45.284Z,89.14
2019-05-06T23:56:47.559Z,88.77
